createdAt,value
2022-09-23T00:01:07.343Z,4.87
2022-09-23T00:03:36.253Z,4.63
2022-09-23T00:06:12.310Z,5.60
2022-09-23T00:08:40.121Z,7.23
2022-09-23T00:11:15.726Z,5.97
2022-09-23T00:13:44.648Z,3.10
2022-09-23T00:16:14.863Z,7.03
2022-09-23T00:18:42.122Z,3.97
2022-09-23T00:21:11.910Z,3.93
2022-09-23T00:23:40.462Z,3.80
2022-09-23T00:26:08.534Z,5.50
2022-09-23T00:28:35.614Z,3.27
2022-09-23T00:31:07.882Z,3.63
2022-09-23T00:33:34.562Z,4.60
2022-09-23T00:36:01.962Z,3.37
2022-09-23T00:38:29.121Z,3.67
2022-09-23T00:40:56.517Z,3.60
2022-09-23T00:43:41.516Z,5.77
2022-09-23T00:46:10.223Z,3.40
2022-09-23T00:48:39.081Z,5.30
2022-09-23T00:51:08.619Z,5.27
2022-09-23T00:53:35.478Z,3.53
2022-09-23T00:56:07.304Z,5.13
2022-09-23T00:58:37.088Z,3.70
2022-09-23T01:01:04.137Z,3.47
2022-09-23T01:03:31.545Z,5.80
2022-09-23T01:05:59.109Z,3.63
2022-09-23T01:08:27.429Z,3.30
2022-09-23T01:10:57.038Z,4.40
2022-09-23T01:13:40.152Z,4.60
2022-09-23T01:16:20.362Z,3.60
2022-09-23T01:18:54.784Z,3.13
2022-09-23T01:22:01.129Z,3.47
2022-09-23T01:24:56.083Z,3.50
2022-09-23T01:27:41.474Z,3.37
2022-09-23T01:30:19.839Z,2.37
2022-09-23T01:32:54.692Z,4.10
2022-09-23T01:35:37.454Z,3.03
2022-09-23T01:38:20.165Z,3.13
2022-09-23T01:40:53.017Z,2.83
2022-09-23T01:43:24.187Z,2.93
2022-09-23T01:45:57.632Z,7.03
2022-09-23T01:48:28.504Z,3.53
2022-09-23T01:51:02.148Z,4.17
2022-09-23T01:53:41.620Z,3.37
2022-09-23T01:56:35.748Z,2.93
2022-09-23T01:59:26.457Z,3.10
2022-09-23T02:02:19.197Z,3.07
2022-09-23T02:04:58.105Z,3.20
2022-09-23T02:07:33.121Z,3.30
2022-09-23T02:10:10.106Z,4.67
2022-09-23T02:12:38.638Z,2.90
2022-09-23T02:15:11.177Z,5.70
2022-09-23T02:17:49.057Z,2.30
2022-09-23T02:20:27.166Z,5.53
2022-09-23T02:23:12.064Z,4.13
2022-09-23T02:26:01.805Z,3.30
2022-09-23T02:29:05.343Z,2.10
2022-09-23T02:31:43.689Z,3.23
2022-09-23T02:34:24.024Z,3.10
2022-09-23T02:37:06.433Z,3.80
2022-09-23T02:39:56.814Z,3.73
2022-09-23T02:42:42.614Z,4.37
2022-09-23T02:45:09.256Z,2.50
2022-09-23T02:47:39.568Z,3.23
2022-09-23T02:50:07.027Z,2.67
2022-09-23T02:52:33.617Z,2.13
2022-09-23T02:55:00.764Z,3.90
2022-09-23T02:57:27.501Z,2.50
2022-09-23T02:59:54.088Z,2.50
2022-09-23T03:02:54.680Z,3.00
2022-09-23T03:05:31.447Z,2.97
2022-09-23T03:08:36.706Z,3.03
2022-09-23T03:11:13.369Z,2.37
2022-09-23T03:13:58.685Z,2.43
2022-09-23T03:16:41.215Z,2.83
2022-09-23T03:19:34.917Z,3.30
2022-09-23T03:22:19.789Z,2.87
2022-09-23T03:24:50.749Z,3.10
2022-09-23T03:27:25.562Z,2.40
2022-09-23T03:29:53.995Z,2.77
2022-09-23T03:32:24.913Z,2.43
2022-09-23T03:34:54.176Z,3.37
2022-09-23T03:37:41.917Z,2.87
2022-09-23T03:40:31.903Z,4.70
2022-09-23T03:43:01.223Z,3.30
2022-09-23T03:45:31.658Z,2.37
2022-09-23T03:47:58.425Z,2.40
2022-09-23T03:50:25.010Z,2.90
2022-09-23T03:52:51.565Z,3.20
2022-09-23T03:55:19.905Z,2.60
2022-09-23T03:57:46.579Z,2.63
2022-09-23T04:00:14.759Z,3.50
2022-09-23T04:02:41.897Z,2.40
2022-09-23T04:05:09.840Z,2.60
2022-09-23T04:07:36.735Z,2.17
2022-09-23T04:10:05.099Z,3.70
2022-09-23T04:12:31.660Z,2.53
2022-09-23T04:14:58.266Z,5.53
2022-09-23T04:17:25.168Z,3.07
2022-09-23T04:19:51.727Z,2.80
2022-09-23T04:22:18.365Z,2.80
2022-09-23T04:24:44.958Z,3.23
2022-09-23T04:27:11.509Z,10.37
2022-09-23T04:29:38.095Z,5.77
2022-09-23T04:32:04.781Z,15.50
2022-09-23T04:34:31.407Z,10.47
2022-09-23T04:36:58.004Z,6.80
2022-09-23T04:39:24.621Z,4.63
2022-09-23T04:41:51.339Z,3.50
2022-09-23T04:44:18.767Z,4.97
2022-09-23T04:46:49.174Z,4.60
2022-09-23T04:49:16.426Z,5.17
2022-09-23T04:51:43.525Z,8.87
2022-09-23T04:54:12.189Z,7.17
2022-09-23T04:56:39.686Z,10.87
2022-09-23T04:59:06.975Z,6.20
2022-09-23T05:01:35.058Z,4.43
2022-09-23T05:04:07.081Z,5.13
2022-09-23T05:06:35.039Z,5.67
2022-09-23T05:09:03.760Z,7.17
2022-09-23T05:11:31.487Z,5.43
2022-09-23T05:13:58.547Z,4.77
2022-09-23T05:16:25.640Z,4.17
2022-09-23T05:18:53.230Z,6.47
2022-09-23T05:21:24.478Z,7.30
2022-09-23T05:23:54.995Z,6.27
2022-09-23T05:26:23.360Z,4.93
2022-09-23T05:28:50.117Z,3.90
2022-09-23T05:31:21.834Z,3.20
2022-09-23T05:33:51.916Z,3.43
2022-09-23T05:36:20.513Z,2.67
2022-09-23T05:38:51.475Z,3.43
2022-09-23T05:41:20.652Z,6.43
2022-09-23T05:43:47.329Z,3.57
2022-09-23T05:46:16.971Z,3.83
2022-09-23T05:48:45.967Z,4.50
2022-09-23T05:51:18.906Z,3.70
2022-09-23T05:53:46.532Z,3.27
2022-09-23T05:56:14.705Z,4.93
2022-09-23T05:58:41.540Z,4.00
2022-09-23T06:01:18.011Z,4.47
2022-09-23T06:03:48.366Z,5.70
2022-09-23T06:06:17.846Z,4.43
2022-09-23T06:08:45.605Z,4.03
2022-09-23T06:11:13.607Z,5.20
2022-09-23T06:13:41.010Z,9.67
2022-09-23T06:16:10.048Z,9.10
2022-09-23T06:18:40.046Z,5.93
2022-09-23T06:21:07.213Z,7.83
2022-09-23T06:23:36.864Z,5.27
2022-09-23T06:26:07.709Z,2.80
2022-09-23T06:28:40.270Z,3.23
2022-09-23T06:31:13.350Z,5.63
2022-09-23T06:33:41.911Z,4.20
2022-09-23T06:36:09.241Z,5.63
2022-09-23T06:38:39.758Z,5.50
2022-09-23T06:41:06.953Z,6.43
2022-09-23T06:43:33.811Z,7.90
2022-09-23T06:46:01.890Z,4.30
2022-09-23T06:48:29.559Z,4.07
2022-09-23T06:51:02.221Z,5.07
2022-09-23T06:53:31.907Z,3.67
2022-09-23T06:56:06.700Z,3.67
2022-09-23T06:58:35.448Z,4.53
2022-09-23T07:01:11.183Z,3.57
2022-09-23T07:03:38.625Z,4.77
2022-09-23T07:06:06.370Z,6.73
2022-09-23T07:08:34.192Z,5.03
2022-09-23T07:11:03.733Z,4.63
2022-09-23T07:13:32.277Z,4.33
2022-09-23T07:16:01.054Z,4.20
2022-09-23T07:18:35.591Z,3.80
2022-09-23T07:21:08.787Z,3.43
2022-09-23T07:23:37.061Z,3.83
2022-09-23T07:26:05.088Z,3.03
2022-09-23T07:28:32.122Z,3.83
2022-09-23T07:31:07.548Z,2.63
2022-09-23T07:33:36.446Z,2.70
2022-09-23T07:36:08.616Z,2.90
2022-09-23T07:38:36.306Z,3.30
2022-09-23T07:41:06.406Z,3.17
2022-09-23T07:43:33.112Z,3.50
2022-09-23T07:46:02.991Z,3.37
2022-09-23T07:48:34.029Z,3.00
2022-09-23T07:51:00.858Z,3.47
2022-09-23T07:53:27.620Z,3.43
2022-09-23T07:55:57.069Z,2.87
2022-09-23T07:58:23.777Z,2.47
2022-09-23T08:00:53.803Z,2.87
2022-09-23T08:03:21.147Z,3.07
2022-09-23T08:05:48.073Z,4.93
2022-09-23T08:08:14.826Z,3.23
2022-09-23T08:10:41.461Z,2.80
2022-09-23T08:13:08.094Z,3.23
2022-09-23T08:15:34.722Z,2.53
2022-09-23T08:18:01.789Z,2.90
2022-09-23T08:20:47.772Z,5.10
2022-09-23T08:23:16.119Z,3.78
2022-09-23T08:25:46.954Z,3.37
2022-09-23T08:28:18.630Z,2.87
2022-09-23T08:30:48.760Z,3.27
2022-09-23T08:33:20.992Z,3.73
2022-09-23T08:35:49.509Z,3.93
2022-09-23T08:38:16.153Z,4.13
2022-09-23T08:40:44.942Z,2.83
2022-09-23T08:43:31.108Z,3.10
2022-09-23T08:46:02.732Z,2.83
2022-09-23T08:48:33.242Z,4.27
2022-09-23T08:51:05.119Z,3.27
2022-09-23T08:53:38.630Z,3.43
2022-09-23T08:56:20.297Z,2.90
2022-09-23T08:58:55.221Z,2.87
2022-09-23T09:01:46.111Z,3.70
2022-09-23T09:04:27.329Z,6.13
2022-09-23T09:07:07.587Z,3.90
2022-09-23T09:10:19.289Z,3.90
2022-09-23T09:13:07.303Z,2.50
2022-09-23T09:15:45.408Z,3.53
2022-09-23T09:18:21.290Z,3.40
2022-09-23T09:21:11.249Z,6.63
2022-09-23T09:23:57.930Z,3.13
2022-09-23T09:26:27.899Z,4.67
2022-09-23T09:29:34.915Z,3.57
2022-09-23T09:32:15.010Z,4.33
2022-09-23T09:34:53.962Z,4.03
2022-09-23T09:37:35.810Z,3.60
2022-09-23T09:40:03.515Z,5.23
2022-09-23T09:42:40.265Z,8.17
2022-09-23T09:45:19.762Z,4.50
2022-09-23T09:48:10.898Z,6.10
2022-09-23T09:50:41.922Z,5.33
2022-09-23T09:53:35.711Z,3.30
2022-09-23T09:56:12.546Z,4.20
2022-09-23T09:59:08.061Z,4.60
2022-09-23T10:01:35.376Z,4.47
2022-09-23T10:04:05.785Z,4.97
2022-09-23T10:06:34.852Z,2.97
2022-09-23T10:09:04.406Z,3.90
2022-09-23T10:11:32.241Z,4.07
2022-09-23T10:14:17.429Z,3.13
2022-09-23T10:16:45.568Z,6.43
2022-09-23T10:19:28.105Z,3.87
2022-09-23T10:22:00.797Z,5.53
2022-09-23T10:24:36.779Z,5.47
2022-09-23T10:27:07.772Z,3.50
2022-09-23T10:29:46.573Z,3.50
2022-09-23T10:32:22.076Z,3.83
2022-09-23T10:34:55.487Z,4.03
2022-09-23T10:37:45.376Z,5.23
2022-09-23T10:40:49.605Z,6.57
2022-09-23T10:44:03.027Z,5.60
2022-09-23T10:46:45.705Z,3.80
2022-09-23T10:49:21.514Z,5.17
2022-09-23T10:52:06.578Z,5.10
2022-09-23T10:55:04.317Z,4.37
2022-09-23T10:57:46.423Z,4.53
2022-09-23T11:00:55.065Z,4.87
2022-09-23T11:04:00.038Z,5.07
2022-09-23T11:07:00.744Z,3.30
2022-09-23T11:10:14.569Z,6.27
2022-09-23T11:13:15.785Z,4.20
2022-09-23T11:15:54.329Z,4.17
2022-09-23T11:18:49.137Z,3.50
2022-09-23T11:21:58.129Z,5.43
2022-09-23T11:24:31.097Z,5.27
2022-09-23T11:26:57.664Z,3.60
2022-09-23T11:29:29.953Z,5.10
2022-09-23T11:32:23.810Z,4.53
2022-09-23T11:35:00.070Z,5.40
2022-09-23T11:37:31.744Z,4.90
2022-09-23T11:40:43.809Z,4.40
2022-09-23T11:43:23.410Z,4.10
2022-09-23T11:46:23.590Z,4.37
2022-09-23T11:49:03.066Z,5.27
2022-09-23T11:51:37.942Z,4.37
2022-09-23T11:54:26.500Z,4.67
2022-09-23T11:57:03.899Z,4.40
2022-09-23T11:59:51.916Z,8.00
2022-09-23T12:02:59.559Z,5.07
2022-09-23T12:05:41.679Z,5.30
2022-09-23T12:08:32.178Z,4.30
2022-09-23T12:11:22.479Z,4.87
2022-09-23T12:13:53.210Z,5.17
2022-09-23T12:16:38.212Z,5.63
2022-09-23T12:19:29.009Z,4.37
2022-09-23T12:22:10.879Z,6.90
2022-09-23T12:25:14.267Z,4.50
2022-09-23T12:27:45.458Z,3.77
2022-09-23T12:30:25.311Z,5.20
2022-09-23T12:32:52.566Z,5.77
2022-09-23T12:35:25.974Z,5.90
2022-09-23T12:37:53.142Z,4.77
2022-09-23T12:40:34.042Z,5.43
2022-09-23T12:43:02.289Z,5.23
2022-09-23T12:45:32.642Z,5.03
2022-09-23T12:48:04.200Z,5.27
2022-09-23T12:50:55.698Z,4.33
2022-09-23T12:53:34.426Z,5.77
2022-09-23T12:56:14.181Z,4.57
2022-09-23T12:58:43.494Z,4.23
2022-09-23T13:01:17.122Z,5.50
2022-09-23T13:04:11.134Z,4.93
2022-09-23T13:06:46.926Z,4.43
2022-09-23T13:09:20.679Z,4.07
2022-09-23T13:11:48.697Z,4.47
2022-09-23T13:14:25.285Z,4.83
2022-09-23T13:16:57.183Z,4.67
2022-09-23T13:19:26.900Z,4.47
2022-09-23T13:21:53.415Z,5.03
2022-09-23T13:24:22.937Z,5.23
2022-09-23T13:27:14.621Z,4.50
2022-09-23T13:29:50.157Z,3.63
2022-09-23T13:32:21.523Z,4.20
2022-09-23T13:35:22.658Z,3.83
2022-09-23T13:37:49.984Z,4.80
2022-09-23T13:40:27.041Z,8.40
2022-09-23T13:43:01.080Z,4.90
2022-09-23T13:45:30.889Z,6.20
2022-09-23T13:48:11.504Z,5.57
2022-09-23T13:50:42.910Z,6.87
2022-09-23T13:53:13.178Z,4.50
2022-09-23T13:55:41.215Z,5.57
2022-09-23T13:58:26.309Z,5.17
2022-09-23T14:00:52.975Z,4.00
2022-09-23T14:03:37.531Z,4.50
2022-09-23T14:06:14.627Z,5.77
2022-09-23T14:08:45.546Z,4.27
2022-09-23T14:11:21.343Z,4.20
2022-09-23T14:13:54.059Z,5.37
2022-09-23T14:16:26.574Z,4.60
2022-09-23T14:18:58.657Z,3.37
2022-09-23T14:21:28.028Z,4.63
2022-09-23T14:23:54.892Z,7.03
2022-09-23T14:26:23.234Z,6.20
2022-09-23T14:28:50.120Z,4.73
2022-09-23T14:31:17.143Z,4.63
2022-09-23T14:33:43.814Z,5.27
2022-09-23T14:36:34.295Z,6.10
2022-09-23T14:39:07.228Z,6.63
2022-09-23T14:41:39.621Z,4.03
2022-09-23T14:44:07.863Z,4.30
2022-09-23T14:46:36.902Z,5.50
2022-09-23T14:49:12.594Z,4.50
2022-09-23T14:51:49.329Z,7.07
2022-09-23T14:54:26.473Z,4.83
2022-09-23T14:56:54.467Z,6.83
2022-09-23T14:59:33.257Z,4.40
2022-09-23T15:01:59.994Z,4.87
2022-09-23T15:04:27.510Z,3.83
2022-09-23T15:06:56.113Z,4.93
2022-09-23T15:09:42.430Z,5.33
2022-09-23T15:12:18.789Z,8.37
2022-09-23T15:14:50.844Z,4.30
2022-09-23T15:17:32.395Z,4.93
2022-09-23T15:20:08.392Z,5.87
2022-09-23T15:22:45.934Z,6.00
2022-09-23T15:25:17.669Z,4.37
2022-09-23T15:27:57.450Z,5.03
2022-09-23T15:30:24.838Z,5.00
2022-09-23T15:32:51.539Z,4.27
2022-09-23T15:35:20.879Z,5.20
2022-09-23T15:37:49.838Z,5.87
2022-09-23T15:40:31.384Z,4.47
2022-09-23T15:43:00.562Z,7.27
2022-09-23T15:45:36.638Z,5.73
2022-09-23T15:48:11.423Z,4.97
2022-09-23T15:50:39.302Z,7.20
2022-09-23T15:53:06.700Z,5.03
2022-09-23T15:55:33.686Z,5.13
2022-09-23T15:58:01.043Z,5.00
2022-09-23T16:00:27.690Z,5.72
2022-09-23T16:02:54.332Z,6.95
2022-09-23T16:05:27.156Z,6.53
2022-09-23T16:07:53.786Z,5.20
2022-09-23T16:10:21.924Z,6.20
2022-09-23T16:12:49.804Z,7.73
2022-09-23T16:15:21.764Z,5.43
2022-09-23T16:17:48.468Z,7.47
2022-09-23T16:20:17.629Z,7.60
2022-09-23T16:22:54.555Z,5.37
2022-09-23T16:25:23.398Z,5.53
2022-09-23T16:27:50.141Z,5.50
2022-09-23T16:30:16.794Z,5.80
2022-09-23T16:32:43.378Z,7.40
2022-09-23T16:35:09.948Z,8.90
2022-09-23T16:37:36.526Z,6.50
2022-09-23T16:40:04.227Z,6.43
2022-09-23T16:42:30.898Z,5.77
2022-09-23T16:44:57.530Z,5.73
2022-09-23T16:47:24.182Z,5.17
2022-09-23T16:49:50.719Z,6.57
2022-09-23T16:52:17.297Z,6.20
2022-09-23T16:54:43.856Z,6.07
2022-09-23T16:57:13.017Z,7.10
2022-09-23T16:59:58.260Z,4.97
2022-09-23T17:02:43.682Z,5.47
2022-09-23T17:05:12.281Z,5.97
2022-09-23T17:07:38.857Z,7.07
2022-09-23T17:10:05.835Z,6.40
2022-09-23T17:12:33.469Z,7.67
2022-09-23T17:15:00.465Z,7.47
2022-09-23T17:17:28.329Z,8.13
2022-09-23T17:19:54.890Z,10.00
2022-09-23T17:22:21.585Z,8.43
2022-09-23T17:24:48.185Z,8.40
2022-09-23T17:27:17.037Z,14.77
2022-09-23T17:29:44.378Z,16.00
2022-09-23T17:32:10.932Z,13.63
2022-09-23T17:34:37.510Z,19.73
2022-09-23T17:37:04.074Z,14.73
2022-09-23T17:39:31.605Z,13.17
2022-09-23T17:41:58.393Z,12.13
2022-09-23T17:44:24.920Z,8.83
2022-09-23T17:46:52.036Z,11.90
2022-09-23T17:49:18.661Z,14.13
2022-09-23T17:51:45.233Z,10.87
2022-09-23T17:54:12.020Z,9.30
2022-09-23T17:56:38.614Z,11.60
2022-09-23T17:59:05.280Z,12.23
2022-09-23T18:01:31.861Z,8.27
2022-09-23T18:04:00.635Z,12.17
2022-09-23T18:06:32.569Z,13.67
2022-09-23T18:09:04.340Z,20.00
2022-09-23T18:11:33.853Z,23.90
2022-09-23T18:14:06.708Z,28.37
2022-09-23T18:16:39.459Z,26.20
2022-09-23T18:19:08.056Z,24.33
2022-09-23T18:21:37.336Z,20.53
2022-09-23T18:24:28.510Z,15.47
2022-09-23T18:26:51.103Z,16.27
2022-09-23T18:29:18.555Z,14.10
2022-09-23T18:31:47.213Z,13.60
2022-09-23T18:34:18.924Z,11.67
2022-09-23T18:36:45.547Z,14.93
2022-09-23T18:39:12.819Z,12.63
2022-09-23T18:41:40.841Z,11.87
2022-09-23T18:44:07.461Z,11.20
2022-09-23T18:46:34.418Z,11.80
2022-09-23T18:49:19.395Z,12.67
2022-09-23T18:51:55.470Z,16.00
2022-09-23T18:54:27.507Z,16.40
2022-09-23T18:56:54.798Z,16.53
2022-09-23T18:59:26.116Z,14.93
2022-09-23T19:01:55.207Z,15.13
2022-09-23T19:04:23.588Z,12.97
2022-09-23T19:06:50.474Z,15.17
2022-09-23T19:09:17.939Z,14.07
2022-09-23T19:11:44.568Z,15.47
2022-09-23T19:14:12.002Z,11.57
2022-09-23T19:16:40.119Z,11.23
2022-09-23T19:19:07.635Z,11.87
2022-09-23T19:21:34.896Z,12.40
2022-09-23T19:24:04.642Z,18.90
2022-09-23T19:26:34.846Z,12.77
2022-09-23T19:29:03.097Z,12.07
2022-09-23T19:31:39.570Z,12.87
2022-09-23T19:34:11.361Z,14.00
2022-09-23T19:36:40.278Z,14.60
2022-09-23T19:39:08.857Z,14.67
2022-09-23T19:41:35.561Z,17.63
2022-09-23T19:44:03.090Z,19.57
2022-09-23T19:46:34.478Z,17.40
2022-09-23T19:49:01.161Z,15.07
2022-09-23T19:51:28.213Z,12.53
2022-09-23T19:53:54.887Z,11.83
2022-09-23T19:56:21.534Z,10.83
2022-09-23T19:58:52.210Z,13.60
2022-09-23T20:01:19.092Z,12.70
2022-09-23T20:03:46.943Z,11.17
2022-09-23T20:06:15.000Z,11.50
2022-09-23T20:08:42.230Z,11.93
2022-09-23T20:11:14.950Z,11.03
2022-09-23T20:13:43.920Z,10.33
2022-09-23T20:16:13.808Z,11.20
2022-09-23T20:18:41.434Z,8.33
2022-09-23T20:21:13.353Z,10.37
2022-09-23T20:23:40.833Z,10.90
2022-09-23T20:26:26.798Z,10.23
2022-09-23T20:28:53.761Z,8.00
2022-09-23T20:31:21.873Z,9.30
2022-09-23T20:33:53.573Z,9.87
2022-09-23T20:36:20.169Z,8.47
2022-09-23T20:38:47.806Z,10.27
2022-09-23T20:41:16.257Z,8.90
2022-09-23T20:43:43.747Z,9.47
2022-09-23T20:46:10.372Z,13.10
2022-09-23T20:48:36.940Z,9.93
2022-09-23T20:51:05.432Z,9.60
2022-09-23T20:53:32.496Z,10.73
2022-09-23T20:55:59.692Z,8.33
2022-09-23T20:58:31.030Z,8.90
2022-09-23T21:01:02.769Z,11.03
2022-09-23T21:03:31.661Z,9.73
2022-09-23T21:06:06.049Z,8.63
2022-09-23T21:08:34.415Z,11.07
2022-09-23T21:11:03.789Z,9.33
2022-09-23T21:13:32.086Z,11.37
2022-09-23T21:16:06.017Z,9.10
2022-09-23T21:18:32.781Z,10.23
2022-09-23T21:21:00.382Z,11.90
2022-09-23T21:23:29.150Z,9.70
2022-09-23T21:26:09.552Z,10.13
2022-09-23T21:28:41.552Z,10.67
2022-09-23T21:31:25.759Z,10.47
2022-09-23T21:33:58.934Z,10.23
2022-09-23T21:36:27.347Z,11.23
2022-09-23T21:38:55.441Z,11.87
2022-09-23T21:41:23.546Z,14.23
2022-09-23T21:43:50.418Z,13.40
2022-09-23T21:46:20.037Z,11.33
2022-09-23T21:48:49.741Z,13.03
2022-09-23T21:51:23.094Z,12.47
2022-09-23T21:53:49.865Z,11.43
2022-09-23T21:56:22.606Z,9.87
2022-09-23T21:58:49.871Z,11.63
2022-09-23T22:01:19.904Z,9.47
2022-09-23T22:03:52.005Z,10.83
2022-09-23T22:06:27.072Z,12.73
2022-09-23T22:08:58.900Z,11.97
2022-09-23T22:11:46.546Z,11.83
2022-09-23T22:14:15.362Z,15.67
2022-09-23T22:16:42.990Z,16.13
2022-09-23T22:19:10.895Z,14.53
2022-09-23T22:21:40.262Z,17.43
2022-09-23T22:24:09.309Z,15.07
2022-09-23T22:26:38.216Z,13.63
2022-09-23T22:29:25.440Z,14.10
2022-09-23T22:32:10.758Z,17.77
2022-09-23T22:34:49.539Z,14.80
2022-09-23T22:37:27.057Z,19.40
2022-09-23T22:39:54.200Z,13.33
2022-09-23T22:42:23.976Z,13.13
2022-09-23T22:44:51.200Z,13.63
2022-09-23T22:47:19.123Z,13.27
2022-09-23T22:49:49.089Z,16.43
2022-09-23T22:52:20.837Z,14.20
2022-09-23T22:54:47.451Z,13.00
2022-09-23T22:57:15.147Z,11.90
2022-09-23T22:59:47.678Z,13.07
2022-09-23T23:02:16.422Z,13.63
2022-09-23T23:04:45.082Z,14.87
2022-09-23T23:07:20.235Z,12.57
2022-09-23T23:09:51.024Z,14.00
2022-09-23T23:12:19.823Z,14.20
2022-09-23T23:14:47.689Z,15.60
2022-09-23T23:17:14.467Z,15.03
2022-09-23T23:19:41.122Z,15.27
2022-09-23T23:22:07.748Z,12.87
2022-09-23T23:24:34.298Z,14.10
2022-09-23T23:27:00.859Z,11.27
2022-09-23T23:29:27.693Z,16.27
2022-09-23T23:31:54.379Z,13.70
2022-09-23T23:34:22.074Z,15.03
2022-09-23T23:36:54.756Z,12.30
2022-09-23T23:39:25.953Z,13.73
2022-09-23T23:41:57.183Z,11.47
2022-09-23T23:44:25.744Z,12.40
2022-09-23T23:46:53.174Z,15.43
2022-09-23T23:49:19.847Z,15.53
2022-09-23T23:51:47.734Z,14.90
2022-09-23T23:54:15.095Z,13.37
2022-09-23T23:56:41.656Z,16.20
2022-09-23T23:59:08.204Z,13.47
